createdAt,value
2022-11-25T00:00:48.190Z,1.30
2022-11-25T00:03:19.048Z,1.20
2022-11-25T00:05:49.051Z,1.15
2022-11-25T00:08:19.429Z,0.98
2022-11-25T00:10:51.321Z,1.10
2022-11-25T00:13:21.352Z,1.10
2022-11-25T00:15:50.835Z,1.20
2022-11-25T00:18:21.137Z,1.20
2022-11-25T00:20:51.654Z,1.00
2022-11-25T00:23:21.531Z,1.10
2022-11-25T00:25:54.213Z,0.93
2022-11-25T00:28:24.589Z,1.17
2022-11-25T00:30:54.733Z,1.10
2022-11-25T00:33:25.166Z,1.33
2022-11-25T00:35:55.646Z,1.10
2022-11-25T00:38:26.199Z,1.23
2022-11-25T00:41:11.606Z,1.20
2022-11-25T00:43:58.322Z,1.00
2022-11-25T00:46:28.762Z,1.05
2022-11-25T00:48:59.238Z,0.85
2022-11-25T00:51:29.911Z,0.88
2022-11-25T00:54:00.455Z,0.98
2022-11-25T00:56:33.076Z,0.98
2022-11-25T00:59:03.559Z,1.13
2022-11-25T01:01:34.637Z,1.00
2022-11-25T01:04:05.633Z,1.30
2022-11-25T01:06:37.002Z,1.10
2022-11-25T01:09:08.065Z,1.30
2022-11-25T01:11:40.399Z,1.10
2022-11-25T01:14:10.898Z,1.15
2022-11-25T01:16:41.303Z,0.93
2022-11-25T01:19:12.733Z,1.35
2022-11-25T01:21:43.786Z,1.13
2022-11-25T01:24:17.662Z,1.02
2022-11-25T01:26:50.035Z,0.93
2022-11-25T01:29:21.832Z,1.17
2022-11-25T01:31:53.184Z,1.13
2022-11-25T01:34:26.349Z,1.10
2022-11-25T01:36:57.439Z,1.27
2022-11-25T01:39:32.800Z,1.20
2022-11-25T01:42:06.021Z,0.98
2022-11-25T01:44:41.678Z,1.10
2022-11-25T01:47:23.796Z,1.15
2022-11-25T01:50:05.455Z,1.33
2022-11-25T01:52:41.956Z,0.93
2022-11-25T01:55:18.023Z,1.27
2022-11-25T01:57:57.461Z,1.20
2022-11-25T02:00:28.190Z,1.15
2022-11-25T02:03:00.974Z,1.17
2022-11-25T02:05:41.785Z,1.17
2022-11-25T02:08:14.624Z,1.00
2022-11-25T02:10:47.313Z,1.17
2022-11-25T02:13:19.808Z,1.10
2022-11-25T02:15:49.982Z,1.13
2022-11-25T02:18:20.806Z,1.10
2022-11-25T02:20:51.277Z,1.00
2022-11-25T02:23:31.286Z,1.30
2022-11-25T02:26:04.210Z,0.90
2022-11-25T02:28:35.938Z,1.33
2022-11-25T02:31:05.985Z,1.30
2022-11-25T02:33:36.158Z,1.10
2022-11-25T02:36:13.676Z,1.10
2022-11-25T02:38:50.300Z,0.93
2022-11-25T02:41:27.552Z,0.75
2022-11-25T02:43:58.253Z,1.00
2022-11-25T02:46:31.271Z,1.00
2022-11-25T02:49:10.815Z,1.10
2022-11-25T02:51:45.125Z,0.90
2022-11-25T02:54:18.214Z,1.00
2022-11-25T02:56:50.836Z,1.00
2022-11-25T02:59:21.483Z,0.90
2022-11-25T03:01:51.416Z,0.82
2022-11-25T03:04:21.604Z,0.90
2022-11-25T03:07:01.804Z,0.70
2022-11-25T03:09:31.912Z,0.50
2022-11-25T03:12:23.115Z,0.22
2022-11-25T03:14:53.516Z,0.30
2022-11-25T03:17:23.521Z,0.10
2022-11-25T03:19:53.967Z,0.10
2022-11-25T03:22:24.200Z,0.60
2022-11-25T03:24:54.271Z,0.60
2022-11-25T03:27:30.283Z,0.88
2022-11-25T03:30:00.688Z,0.73
2022-11-25T03:32:31.192Z,0.98
2022-11-25T03:35:01.891Z,1.10
2022-11-25T03:37:31.822Z,1.00
2022-11-25T03:40:01.985Z,0.82
2022-11-25T03:42:34.371Z,1.00
2022-11-25T03:45:05.383Z,1.00
2022-11-25T03:47:35.932Z,1.20
2022-11-25T03:50:07.162Z,1.15
2022-11-25T03:52:37.696Z,1.00
2022-11-25T03:55:08.962Z,1.10
2022-11-25T03:57:41.798Z,1.50
2022-11-25T04:00:13.720Z,1.00
2022-11-25T04:02:44.338Z,1.35
2022-11-25T04:05:15.041Z,1.17
2022-11-25T04:07:45.195Z,1.13
2022-11-25T04:10:16.526Z,1.25
2022-11-25T04:12:49.820Z,1.48
2022-11-25T04:15:21.104Z,1.10
2022-11-25T04:17:51.469Z,1.33
2022-11-25T04:20:22.537Z,1.17
2022-11-25T04:22:53.347Z,1.20
2022-11-25T04:25:23.401Z,1.17
2022-11-25T04:27:55.154Z,0.90
2022-11-25T04:30:25.584Z,1.30
2022-11-25T04:32:56.769Z,1.35
2022-11-25T04:35:26.902Z,1.13
2022-11-25T04:38:01.413Z,1.08
2022-11-25T04:40:33.344Z,1.20
2022-11-25T04:43:10.379Z,1.15
2022-11-25T04:46:06.783Z,1.40
2022-11-25T04:48:31.635Z,1.10
2022-11-25T04:51:01.649Z,1.13
2022-11-25T04:53:31.846Z,1.58
2022-11-25T04:56:01.862Z,1.40
2022-11-25T04:58:52.536Z,1.42
2022-11-25T05:01:23.100Z,1.30
2022-11-25T05:03:57.477Z,1.50
2022-11-25T05:06:28.308Z,1.35
2022-11-25T05:08:58.258Z,1.30
2022-11-25T05:11:32.040Z,1.50
2022-11-25T05:14:04.014Z,1.30
2022-11-25T05:16:34.625Z,1.42
2022-11-25T05:19:05.335Z,1.23
2022-11-25T05:21:36.844Z,1.20
2022-11-25T05:24:07.897Z,1.17
2022-11-25T05:26:38.372Z,1.17
2022-11-25T05:29:12.188Z,1.50
2022-11-25T05:31:42.914Z,1.30
2022-11-25T05:34:13.813Z,1.40
2022-11-25T05:36:44.314Z,1.20
2022-11-25T05:39:14.554Z,1.40
2022-11-25T05:41:44.658Z,1.45
2022-11-25T05:44:31.741Z,1.38
2022-11-25T05:47:02.062Z,1.27
2022-11-25T05:49:32.680Z,1.42
2022-11-25T05:52:03.794Z,1.50
2022-11-25T05:54:34.898Z,1.27
2022-11-25T05:57:05.503Z,1.40
2022-11-25T05:59:37.389Z,1.50
2022-11-25T06:02:07.939Z,1.40
2022-11-25T06:04:38.900Z,1.50
2022-11-25T06:07:09.614Z,1.40
2022-11-25T06:09:40.298Z,1.63
2022-11-25T06:12:10.631Z,1.10
2022-11-25T06:14:42.796Z,1.10
2022-11-25T06:17:13.308Z,1.00
2022-11-25T06:19:43.628Z,1.20
2022-11-25T06:22:14.726Z,1.30
2022-11-25T06:24:47.919Z,1.38
2022-11-25T06:27:22.747Z,1.38
2022-11-25T06:29:55.302Z,1.30
2022-11-25T06:32:25.338Z,1.40
2022-11-25T06:34:55.511Z,1.42
2022-11-25T06:37:26.069Z,1.20
2022-11-25T06:39:56.173Z,1.50
2022-11-25T06:42:26.868Z,1.50
2022-11-25T06:44:59.013Z,1.20
2022-11-25T06:47:29.718Z,1.13
2022-11-25T06:49:59.758Z,1.00
2022-11-25T06:52:32.595Z,1.10
2022-11-25T06:55:03.167Z,1.10
2022-11-25T06:57:33.617Z,1.02
2022-11-25T07:00:07.245Z,1.20
2022-11-25T07:02:42.834Z,1.10
2022-11-25T07:05:15.922Z,1.10
2022-11-25T07:07:46.435Z,1.00
2022-11-25T07:10:17.186Z,1.05
2022-11-25T07:12:47.590Z,1.20
2022-11-25T07:15:20.505Z,1.20
2022-11-25T07:17:50.561Z,1.00
2022-11-25T07:20:21.410Z,1.50
2022-11-25T07:22:52.408Z,1.20
2022-11-25T07:25:25.462Z,1.15
2022-11-25T07:28:00.320Z,1.13
2022-11-25T07:33:22.527Z,1.20
2022-11-25T07:35:52.895Z,1.40
2022-11-25T07:38:23.324Z,1.15
2022-11-25T07:40:53.760Z,1.15
2022-11-25T07:43:24.489Z,1.10
2022-11-25T07:45:57.011Z,1.10
2022-11-25T07:48:26.909Z,1.30
2022-11-25T07:50:57.489Z,1.13
2022-11-25T07:53:27.262Z,0.90
2022-11-25T07:55:57.332Z,1.00
2022-11-25T07:58:28.242Z,1.02
2022-11-25T08:01:04.443Z,0.82
2022-11-25T08:03:37.407Z,0.88
2022-11-25T08:06:10.761Z,0.77
2022-11-25T08:08:42.868Z,0.70
2022-11-25T08:11:16.352Z,0.98
2022-11-25T08:13:47.292Z,1.10
2022-11-25T08:16:23.728Z,0.93
2022-11-25T08:18:59.483Z,0.95
2022-11-25T08:21:30.624Z,1.25
2022-11-25T08:24:03.660Z,1.20
2022-11-25T08:26:38.387Z,1.70
2022-11-25T08:29:10.295Z,1.27
2022-11-25T08:31:43.315Z,1.73
2022-11-25T08:34:21.597Z,1.55
2022-11-25T08:36:58.345Z,1.52
2022-11-25T08:39:51.110Z,1.40
2022-11-25T08:42:19.772Z,1.25
2022-11-25T08:44:55.793Z,1.40
2022-11-25T08:47:28.522Z,1.23
2022-11-25T08:50:10.292Z,1.15
2022-11-25T08:52:40.542Z,1.20
2022-11-25T08:55:12.514Z,1.50
2022-11-25T08:57:43.550Z,1.30
2022-11-25T09:00:15.726Z,1.10
2022-11-25T09:02:48.252Z,1.10
2022-11-25T09:05:20.565Z,1.23
2022-11-25T09:07:51.268Z,1.05
2022-11-25T09:10:21.565Z,1.05
2022-11-25T09:12:52.674Z,0.95
2022-11-25T09:15:22.825Z,0.80
2022-11-25T09:18:01.547Z,1.02
2022-11-25T09:20:34.381Z,1.02
2022-11-25T09:23:10.921Z,1.13
2022-11-25T09:25:41.013Z,1.08
2022-11-25T09:28:12.693Z,1.13
2022-11-25T09:30:42.776Z,1.00
2022-11-25T09:33:15.286Z,1.02
2022-11-25T09:35:46.178Z,0.85
2022-11-25T09:38:17.385Z,1.00
2022-11-25T09:40:57.026Z,1.00
2022-11-25T09:44:02.707Z,1.20
2022-11-25T09:46:56.846Z,1.15
2022-11-25T09:49:50.366Z,1.15
2022-11-25T09:52:36.831Z,1.15
2022-11-25T09:55:18.681Z,1.02
2022-11-25T09:58:09.281Z,1.10
2022-11-25T10:00:42.966Z,1.23
2022-11-25T10:03:26.364Z,1.17
2022-11-25T10:06:07.981Z,1.00
2022-11-25T10:08:42.416Z,1.27
2022-11-25T10:11:30.988Z,1.23
2022-11-25T10:14:10.258Z,1.27
2022-11-25T10:16:52.402Z,1.10
2022-11-25T10:19:39.548Z,1.02
2022-11-25T10:22:27.192Z,1.00
2022-11-25T10:25:05.819Z,0.80
2022-11-25T10:27:48.515Z,0.45
2022-11-25T10:30:24.378Z,0.52
2022-11-25T10:33:02.619Z,0.68
2022-11-25T10:35:40.924Z,0.60
2022-11-25T10:38:22.652Z,0.60
2022-11-25T10:40:55.363Z,0.52
2022-11-25T10:43:30.328Z,0.60
2022-11-25T10:46:18.329Z,0.60
2022-11-25T10:49:03.567Z,0.65
2022-11-25T10:51:42.967Z,0.75
2022-11-25T10:54:26.867Z,0.80
2022-11-25T10:57:00.678Z,0.95
2022-11-25T10:59:34.536Z,1.00
2022-11-25T11:02:31.634Z,0.50
2022-11-25T11:05:07.227Z,0.60
2022-11-25T11:07:40.540Z,0.63
2022-11-25T11:10:22.736Z,0.60
2022-11-25T11:13:04.373Z,0.65
2022-11-25T11:15:49.507Z,0.90
2022-11-25T11:18:28.353Z,0.50
2022-11-25T11:21:01.709Z,0.70
2022-11-25T11:23:32.310Z,0.90
2022-11-25T11:26:07.052Z,0.60
2022-11-25T11:28:43.980Z,0.57
2022-11-25T11:31:23.503Z,0.35
2022-11-25T11:34:09.614Z,0.52
2022-11-25T11:37:01.504Z,0.57
2022-11-25T11:40:17.095Z,0.57
2022-11-25T11:43:05.396Z,0.40
2022-11-25T11:45:53.498Z,0.60
2022-11-25T11:48:34.270Z,0.98
2022-11-25T11:51:21.625Z,0.55
2022-11-25T11:54:06.819Z,0.68
2022-11-25T11:56:44.310Z,0.68
2022-11-25T11:59:49.924Z,0.52
2022-11-25T12:02:54.726Z,0.40
2022-11-25T12:05:31.955Z,0.52
2022-11-25T12:08:13.562Z,0.70
2022-11-25T12:10:50.961Z,0.70
2022-11-25T12:13:35.119Z,0.50
2022-11-25T12:16:14.858Z,0.35
2022-11-25T12:18:55.457Z,0.60
2022-11-25T12:21:47.225Z,0.30
2022-11-25T12:24:29.730Z,0.40
2022-11-25T12:27:09.432Z,0.30
2022-11-25T12:29:48.288Z,0.40
2022-11-25T12:32:49.626Z,0.50
2022-11-25T12:35:34.186Z,0.30
2022-11-25T12:38:19.365Z,0.45
2022-11-25T12:40:59.886Z,0.55
2022-11-25T12:43:44.850Z,0.38
2022-11-25T12:46:36.708Z,0.35
2022-11-25T12:49:20.141Z,0.60
2022-11-25T12:52:29.089Z,0.40
2022-11-25T12:55:19.459Z,0.30
2022-11-25T12:58:41.133Z,0.30
2022-11-25T13:01:58.256Z,0.40
2022-11-25T13:08:33.145Z,0.40
2022-11-25T13:11:41.331Z,0.30
2022-11-25T13:14:28.633Z,0.30
2022-11-25T13:17:01.354Z,0.30
2022-11-25T13:19:37.206Z,0.22
2022-11-25T13:22:30.854Z,0.40
2022-11-25T13:25:02.434Z,0.30
2022-11-25T13:27:36.637Z,0.35
2022-11-25T13:30:09.057Z,0.20
2022-11-25T13:32:47.177Z,0.30
2022-11-25T13:35:58.177Z,0.30
2022-11-25T13:39:08.775Z,0.57
2022-11-25T13:42:00.956Z,0.50
2022-11-25T13:44:35.815Z,0.50
2022-11-25T13:47:33.018Z,0.43
2022-11-25T13:50:11.890Z,0.28
2022-11-25T13:52:51.927Z,0.30
2022-11-25T13:55:37.577Z,0.43
2022-11-25T13:58:24.749Z,0.40
2022-11-25T14:01:29.837Z,0.30
2022-11-25T14:04:06.699Z,0.50
2022-11-25T14:07:09.223Z,0.47
2022-11-25T14:10:10.170Z,0.30
2022-11-25T14:13:05.553Z,0.30
2022-11-25T14:16:16.453Z,0.50
2022-11-25T14:19:50.653Z,0.30
2022-11-25T14:23:17.095Z,0.60
2022-11-25T14:25:55.706Z,0.70
2022-11-25T14:28:38.773Z,0.45
2022-11-25T14:31:16.612Z,0.45
2022-11-25T14:33:55.100Z,0.47
2022-11-25T14:36:31.952Z,0.43
2022-11-25T14:39:08.990Z,0.30
2022-11-25T14:41:44.851Z,0.40
2022-11-25T14:44:26.698Z,0.40
2022-11-25T14:46:58.557Z,0.47
2022-11-25T14:50:05.240Z,0.30
2022-11-25T14:52:40.926Z,0.28
2022-11-25T14:55:13.296Z,0.20
2022-11-25T14:57:48.607Z,0.50
2022-11-25T15:00:23.321Z,0.50
2022-11-25T15:03:00.965Z,0.60
2022-11-25T15:05:37.318Z,0.40
2022-11-25T15:08:18.241Z,0.60
2022-11-25T15:10:56.573Z,0.60
2022-11-25T15:13:36.543Z,0.57
2022-11-25T15:16:16.304Z,0.50
2022-11-25T15:18:54.401Z,0.40
2022-11-25T15:21:31.868Z,0.60
2022-11-25T15:24:03.828Z,0.68
2022-11-25T15:26:38.090Z,0.90
2022-11-25T15:29:16.164Z,0.70
2022-11-25T15:31:52.678Z,0.60
2022-11-25T15:34:25.327Z,0.57
2022-11-25T15:36:56.008Z,0.60
2022-11-25T15:39:31.066Z,0.32
2022-11-25T15:42:17.816Z,0.55
2022-11-25T15:44:56.913Z,0.52
2022-11-25T15:47:32.356Z,0.30
2022-11-25T15:50:08.005Z,0.28
2022-11-25T15:52:43.311Z,0.40
2022-11-25T15:55:30.654Z,0.40
2022-11-25T15:58:08.404Z,0.43
2022-11-25T16:00:42.104Z,0.40
2022-11-25T16:03:25.354Z,0.30
2022-11-25T16:05:58.192Z,0.55
2022-11-25T16:08:37.543Z,0.20
2022-11-25T16:11:20.013Z,0.30
2022-11-25T16:13:51.299Z,0.28
2022-11-25T16:16:28.060Z,0.30
2022-11-25T16:19:23.802Z,0.30
2022-11-25T16:22:00.929Z,0.30
2022-11-25T16:24:39.312Z,0.43
2022-11-25T16:27:24.090Z,0.47
2022-11-25T16:30:09.987Z,0.77
2022-11-25T16:32:40.717Z,0.50
2022-11-25T16:35:19.672Z,0.65
2022-11-25T16:37:50.682Z,0.60
2022-11-25T16:40:22.244Z,0.52
2022-11-25T16:42:53.971Z,0.70
2022-11-25T16:45:27.356Z,0.30
2022-11-25T16:47:58.306Z,0.60
2022-11-25T16:50:30.779Z,0.30
2022-11-25T16:53:01.995Z,0.20
2022-11-25T16:55:34.256Z,0.30
2022-11-25T16:58:05.601Z,0.30
2022-11-25T17:00:35.822Z,0.43
2022-11-25T17:03:09.379Z,0.40
2022-11-25T17:05:41.438Z,0.35
2022-11-25T17:08:11.751Z,0.40
2022-11-25T17:10:44.349Z,0.50
2022-11-25T17:13:23.748Z,0.30
2022-11-25T17:15:55.115Z,0.30
2022-11-25T17:18:26.336Z,0.30
2022-11-25T17:20:57.955Z,0.43
2022-11-25T17:23:29.032Z,0.35
2022-11-25T17:25:59.676Z,0.30
2022-11-25T17:28:29.459Z,0.30
2022-11-25T17:31:00.200Z,0.32
2022-11-25T17:33:30.706Z,0.30
2022-11-25T17:36:03.380Z,0.50
2022-11-25T17:38:34.188Z,0.40
2022-11-25T17:41:04.692Z,0.25
2022-11-25T17:43:35.856Z,0.40
2022-11-25T17:46:05.658Z,0.60
2022-11-25T17:48:36.773Z,0.52
2022-11-25T17:51:09.213Z,0.35
2022-11-25T17:53:40.421Z,0.52
2022-11-25T17:56:25.485Z,0.77
2022-11-25T17:58:57.066Z,1.05
2022-11-25T18:01:27.782Z,1.58
2022-11-25T18:03:58.668Z,1.55
2022-11-25T18:06:31.649Z,1.50
2022-11-25T18:09:03.269Z,1.48
2022-11-25T18:11:34.631Z,1.08
2022-11-25T18:14:04.608Z,1.17
2022-11-25T18:16:35.930Z,1.80
2022-11-25T18:19:06.630Z,4.47
2022-11-25T18:21:39.172Z,4.07
2022-11-25T18:24:10.275Z,3.13
2022-11-25T18:26:47.839Z,2.53
2022-11-25T18:29:21.840Z,2.00
2022-11-25T18:31:53.888Z,4.00
2022-11-25T18:34:26.471Z,3.30
2022-11-25T18:36:59.142Z,2.60
2022-11-25T18:39:29.874Z,2.10
2022-11-25T18:42:01.801Z,1.40
2022-11-25T18:44:32.803Z,1.13
2022-11-25T18:47:03.483Z,0.90
2022-11-25T18:49:33.663Z,0.60
2022-11-25T18:52:07.296Z,0.90
2022-11-25T18:54:38.992Z,0.52
2022-11-25T18:57:12.965Z,0.40
2022-11-25T19:00:00.222Z,0.40
2022-11-25T19:02:40.890Z,1.48
2022-11-25T19:05:21.581Z,2.55
2022-11-25T19:07:57.405Z,2.40
2022-11-25T19:10:33.838Z,1.98
2022-11-25T19:13:11.713Z,1.40
2022-11-25T19:15:42.776Z,1.00
2022-11-25T19:18:17.155Z,0.93
2022-11-25T19:20:48.160Z,0.60
2022-11-25T19:23:25.786Z,0.47
2022-11-25T19:25:58.896Z,0.50
2022-11-25T19:28:41.848Z,0.50
2022-11-25T19:31:14.038Z,0.30
2022-11-25T19:33:47.649Z,0.40
2022-11-25T19:36:27.488Z,0.40
2022-11-25T19:39:00.643Z,0.28
2022-11-25T19:41:31.471Z,0.20
2022-11-25T19:44:02.344Z,0.35
2022-11-25T19:46:52.419Z,0.50
2022-11-25T19:49:24.430Z,0.20
2022-11-25T19:51:54.248Z,0.30
2022-11-25T19:54:27.268Z,0.38
2022-11-25T19:56:58.249Z,0.40
2022-11-25T19:59:28.782Z,0.30
2022-11-25T20:02:00.324Z,0.35
2022-11-25T20:04:30.709Z,0.20
2022-11-25T20:07:00.782Z,0.28
2022-11-25T20:09:33.640Z,0.63
2022-11-25T20:12:14.718Z,0.40
2022-11-25T20:14:45.835Z,0.40
2022-11-25T20:17:28.922Z,0.20
2022-11-25T20:20:05.828Z,0.32
2022-11-25T20:22:40.710Z,0.47
2022-11-25T20:25:17.490Z,0.20
2022-11-25T20:27:48.201Z,0.30
2022-11-25T20:30:21.120Z,0.20
2022-11-25T20:32:52.045Z,0.43
2022-11-25T20:35:23.577Z,0.40
2022-11-25T20:37:55.073Z,0.38
2022-11-25T20:40:41.027Z,0.20
2022-11-25T20:43:26.605Z,0.45
2022-11-25T20:45:57.718Z,0.40
2022-11-25T20:48:29.734Z,0.25
2022-11-25T20:51:05.046Z,0.30
2022-11-25T20:53:37.223Z,0.38
2022-11-25T20:56:12.321Z,0.40
2022-11-25T20:58:42.565Z,0.45
2022-11-25T21:01:14.681Z,0.38
2022-11-25T21:03:46.099Z,0.10
2022-11-25T21:06:23.192Z,0.20
2022-11-25T21:08:56.826Z,0.38
2022-11-25T21:11:33.973Z,0.30
2022-11-25T21:14:03.953Z,0.20
2022-11-25T21:16:34.138Z,0.32
2022-11-25T21:19:04.878Z,0.30
2022-11-25T21:21:40.105Z,0.20
2022-11-25T21:24:24.968Z,0.20
2022-11-25T21:26:59.060Z,0.20
2022-11-25T21:29:31.126Z,0.40
2022-11-25T21:32:01.338Z,0.35
2022-11-25T21:34:31.514Z,0.40
2022-11-25T21:37:09.590Z,0.35
2022-11-25T21:39:40.333Z,0.38
2022-11-25T21:42:24.868Z,0.40
2022-11-25T21:44:57.283Z,0.40
2022-11-25T21:47:34.352Z,0.40
2022-11-25T21:50:04.459Z,0.30
2022-11-25T21:52:35.011Z,0.38
2022-11-25T21:55:09.559Z,0.30
2022-11-25T21:57:42.897Z,0.22
2022-11-25T22:00:26.035Z,0.38
2022-11-25T22:02:57.254Z,0.20
2022-11-25T22:05:28.324Z,0.30
2022-11-25T22:08:00.470Z,0.30
2022-11-25T22:10:31.158Z,0.25
2022-11-25T22:13:04.357Z,0.35
2022-11-25T22:15:37.380Z,0.30
2022-11-25T22:18:08.608Z,0.32
2022-11-25T22:20:41.629Z,0.20
2022-11-25T22:23:18.098Z,0.30
2022-11-25T22:25:50.752Z,0.30
2022-11-25T22:28:26.133Z,0.35
2022-11-25T22:31:00.597Z,0.30
2022-11-25T22:33:36.143Z,0.40
2022-11-25T22:36:07.546Z,0.25
2022-11-25T22:38:38.651Z,0.40
2022-11-25T22:41:09.290Z,0.50
2022-11-25T22:43:52.525Z,0.28
2022-11-25T22:46:23.134Z,0.22
2022-11-25T22:48:53.848Z,0.30
2022-11-25T22:51:29.962Z,0.40
2022-11-25T22:54:01.662Z,0.43
2022-11-25T22:56:33.854Z,0.20
2022-11-25T22:59:05.764Z,0.20
2022-11-25T23:01:36.518Z,0.20
2022-11-25T23:04:34.455Z,0.20
2022-11-25T23:07:05.647Z,0.28
2022-11-25T23:09:36.413Z,0.20
2022-11-25T23:12:07.151Z,0.22
2022-11-25T23:14:39.553Z,0.10
2022-11-25T23:17:19.607Z,0.17
2022-11-25T23:19:51.046Z,0.15
2022-11-25T23:22:22.408Z,0.10
2022-11-25T23:24:52.421Z,0.25
2022-11-25T23:30:19.742Z,0.45
2022-11-25T23:32:55.068Z,0.35
2022-11-25T23:35:41.148Z,0.35
2022-11-25T23:38:21.010Z,0.50
2022-11-25T23:40:51.473Z,0.30
2022-11-25T23:43:22.073Z,0.10
2022-11-25T23:45:58.268Z,0.30
2022-11-25T23:48:33.629Z,0.10
2022-11-25T23:51:05.164Z,0.20
2022-11-25T23:53:40.720Z,0.40
2022-11-25T23:56:11.446Z,0.28
2022-11-25T23:58:42.621Z,0.10
